sensor_id;sensor_type;location;lat;lon;timestamp;P1;durP1;ratioP1;P2;durP2;ratioP2
66139;SDS011;52945;51.908;8.364;2023-02-10T00:00:45;22.92;;;9.13;;
66139;SDS011;52945;51.908;8.364;2023-02-10T00:03:46;23.77;;;9.77;;
66139;SDS011;52945;51.908;8.364;2023-02-10T00:06:47;25.92;;;10.80;;
66139;SDS011;52945;51.908;8.364;2023-02-10T00:09:48;27.00;;;9.57;;
66139;SDS011;52945;51.908;8.364;2023-02-10T00:12:49;30.08;;;9.70;;
66139;SDS011;52945;51.908;8.364;2023-02-10T00:15:49;24.63;;;10.15;;
66139;SDS011;52945;51.908;8.364;2023-02-10T00:18:50;27.58;;;9.90;;
66139;SDS011;52945;51.908;8.364;2023-02-10T00:21:51;30.42;;;10.35;;
66139;SDS011;52945;51.908;8.364;2023-02-10T00:24:51;27.05;;;9.85;;
66139;SDS011;52945;51.908;8.364;2023-02-10T00:27:52;21.80;;;9.85;;
66139;SDS011;52945;51.908;8.364;2023-02-10T00:30:52;23.35;;;10.00;;
66139;SDS011;52945;51.908;8.364;2023-02-10T00:33:53;25.88;;;10.18;;
66139;SDS011;52945;51.908;8.364;2023-02-10T00:36:54;24.77;;;8.95;;
66139;SDS011;52945;51.908;8.364;2023-02-10T00:39:54;23.23;;;9.85;;
66139;SDS011;52945;51.908;8.364;2023-02-10T00:42:55;23.33;;;9.93;;
66139;SDS011;52945;51.908;8.364;2023-02-10T00:45:55;30.30;;;10.43;;
66139;SDS011;52945;51.908;8.364;2023-02-10T00:48:56;22.58;;;9.68;;
66139;SDS011;52945;51.908;8.364;2023-02-10T00:51:56;23.92;;;9.63;;
66139;SDS011;52945;51.908;8.364;2023-02-10T00:54:57;26.08;;;10.13;;
66139;SDS011;52945;51.908;8.364;2023-02-10T00:57:58;25.75;;;9.43;;
66139;SDS011;52945;51.908;8.364;2023-02-10T01:00:58;27.77;;;9.75;;
66139;SDS011;52945;51.908;8.364;2023-02-10T01:03:59;26.67;;;9.45;;
66139;SDS011;52945;51.908;8.364;2023-02-10T01:06:59;27.25;;;10.10;;
66139;SDS011;52945;51.908;8.364;2023-02-10T01:10:00;29.33;;;10.75;;
66139;SDS011;52945;51.908;8.364;2023-02-10T01:13:04;27.48;;;10.23;;
66139;SDS011;52945;51.908;8.364;2023-02-10T01:16:07;28.38;;;10.50;;
66139;SDS011;52945;51.908;8.364;2023-02-10T01:19:10;26.70;;;9.55;;
66139;SDS011;52945;51.908;8.364;2023-02-10T01:22:11;27.58;;;9.20;;
66139;SDS011;52945;51.908;8.364;2023-02-10T01:25:12;27.35;;;10.55;;
66139;SDS011;52945;51.908;8.364;2023-02-10T01:28:13;27.13;;;9.93;;
66139;SDS011;52945;51.908;8.364;2023-02-10T01:31:15;31.85;;;11.30;;
66139;SDS011;52945;51.908;8.364;2023-02-10T01:34:17;32.67;;;11.10;;
66139;SDS011;52945;51.908;8.364;2023-02-10T01:37:18;32.28;;;10.02;;
66139;SDS011;52945;51.908;8.364;2023-02-10T01:40:18;30.45;;;10.18;;
66139;SDS011;52945;51.908;8.364;2023-02-10T01:43:19;22.25;;;9.55;;
66139;SDS011;52945;51.908;8.364;2023-02-10T01:46:20;24.17;;;9.35;;
66139;SDS011;52945;51.908;8.364;2023-02-10T01:49:24;35.28;;;10.77;;
66139;SDS011;52945;51.908;8.364;2023-02-10T01:52:28;35.38;;;10.70;;
66139;SDS011;52945;51.908;8.364;2023-02-10T01:55:31;25.55;;;10.38;;
66139;SDS011;52945;51.908;8.364;2023-02-10T01:58:36;28.77;;;10.40;;
66139;SDS011;52945;51.908;8.364;2023-02-10T02:01:37;37.70;;;10.00;;
66139;SDS011;52945;51.908;8.364;2023-02-10T02:04:54;30.15;;;10.65;;
66139;SDS011;52945;51.908;8.364;2023-02-10T02:08:21;25.88;;;10.98;;
66139;SDS011;52945;51.908;8.364;2023-02-10T02:11:30;28.52;;;10.10;;
66139;SDS011;52945;51.908;8.364;2023-02-10T02:21:42;27.65;;;10.50;;
66139;SDS011;52945;51.908;8.364;2023-02-10T02:24:52;27.65;;;9.80;;
66139;SDS011;52945;51.908;8.364;2023-02-10T02:28:08;31.25;;;10.85;;
66139;SDS011;52945;51.908;8.364;2023-02-10T02:38:06;25.23;;;9.07;;
66139;SDS011;52945;51.908;8.364;2023-02-10T02:41:07;23.67;;;9.30;;
66139;SDS011;52945;51.908;8.364;2023-02-10T02:44:08;24.52;;;10.88;;
66139;SDS011;52945;51.908;8.364;2023-02-10T03:00:11;30.05;;;10.68;;
66139;SDS011;52945;51.908;8.364;2023-02-10T03:03:15;35.17;;;10.63;;
66139;SDS011;52945;51.908;8.364;2023-02-10T03:06:16;30.30;;;10.77;;
66139;SDS011;52945;51.908;8.364;2023-02-10T03:09:16;25.42;;;9.50;;
66139;SDS011;52945;51.908;8.364;2023-02-10T03:12:18;24.48;;;9.25;;
66139;SDS011;52945;51.908;8.364;2023-02-10T03:15:18;26.27;;;10.05;;
66139;SDS011;52945;51.908;8.364;2023-02-10T03:18:19;23.73;;;9.35;;
66139;SDS011;52945;51.908;8.364;2023-02-10T03:21:19;27.67;;;10.30;;
66139;SDS011;52945;51.908;8.364;2023-02-10T03:24:20;25.45;;;9.80;;
66139;SDS011;52945;51.908;8.364;2023-02-10T03:27:21;29.40;;;10.55;;
66139;SDS011;52945;51.908;8.364;2023-02-10T03:30:21;27.60;;;9.25;;
66139;SDS011;52945;51.908;8.364;2023-02-10T03:33:22;25.50;;;9.68;;
66139;SDS011;52945;51.908;8.364;2023-02-10T03:36:23;25.65;;;8.98;;
66139;SDS011;52945;51.908;8.364;2023-02-10T03:39:23;31.30;;;10.05;;
66139;SDS011;52945;51.908;8.364;2023-02-10T03:42:24;23.48;;;9.43;;
66139;SDS011;52945;51.908;8.364;2023-02-10T03:45:24;31.10;;;11.25;;
66139;SDS011;52945;51.908;8.364;2023-02-10T03:48:25;29.02;;;10.48;;
66139;SDS011;52945;51.908;8.364;2023-02-10T03:51:30;27.80;;;9.45;;
66139;SDS011;52945;51.908;8.364;2023-02-10T03:54:31;26.90;;;9.75;;
66139;SDS011;52945;51.908;8.364;2023-02-10T03:57:32;24.80;;;8.27;;
66139;SDS011;52945;51.908;8.364;2023-02-10T04:00:32;24.33;;;9.75;;
66139;SDS011;52945;51.908;8.364;2023-02-10T04:03:33;24.63;;;8.88;;
66139;SDS011;52945;51.908;8.364;2023-02-10T04:06:33;23.88;;;7.35;;
66139;SDS011;52945;51.908;8.364;2023-02-10T04:09:34;23.88;;;9.63;;
66139;SDS011;52945;51.908;8.364;2023-02-10T04:12:34;23.13;;;9.20;;
66139;SDS011;52945;51.908;8.364;2023-02-10T04:15:35;22.95;;;7.95;;
66139;SDS011;52945;51.908;8.364;2023-02-10T04:18:37;19.17;;;8.52;;
66139;SDS011;52945;51.908;8.364;2023-02-10T04:21:38;20.38;;;8.82;;
66139;SDS011;52945;51.908;8.364;2023-02-10T04:24:39;21.95;;;8.50;;
66139;SDS011;52945;51.908;8.364;2023-02-10T04:27:39;25.85;;;8.95;;
66139;SDS011;52945;51.908;8.364;2023-02-10T04:30:40;20.35;;;7.50;;
66139;SDS011;52945;51.908;8.364;2023-02-10T04:33:41;18.63;;;7.78;;
66139;SDS011;52945;51.908;8.364;2023-02-10T04:36:42;24.13;;;8.73;;
66139;SDS011;52945;51.908;8.364;2023-02-10T04:39:43;18.60;;;7.20;;
66139;SDS011;52945;51.908;8.364;2023-02-10T04:42:43;22.83;;;7.50;;
66139;SDS011;52945;51.908;8.364;2023-02-10T04:45:44;29.38;;;9.38;;
66139;SDS011;52945;51.908;8.364;2023-02-10T04:48:45;22.88;;;9.23;;
66139;SDS011;52945;51.908;8.364;2023-02-10T04:51:46;17.77;;;7.20;;
66139;SDS011;52945;51.908;8.364;2023-02-10T04:54:46;25.75;;;8.30;;
66139;SDS011;52945;51.908;8.364;2023-02-10T04:57:47;23.50;;;9.55;;
66139;SDS011;52945;51.908;8.364;2023-02-10T05:00:47;24.50;;;8.43;;
66139;SDS011;52945;51.908;8.364;2023-02-10T05:03:48;27.60;;;8.95;;
66139;SDS011;52945;51.908;8.364;2023-02-10T05:06:49;20.60;;;7.93;;
66139;SDS011;52945;51.908;8.364;2023-02-10T05:09:49;24.88;;;8.27;;
66139;SDS011;52945;51.908;8.364;2023-02-10T05:12:50;17.55;;;8.65;;
66139;SDS011;52945;51.908;8.364;2023-02-10T05:15:50;19.20;;;10.30;;
66139;SDS011;52945;51.908;8.364;2023-02-10T05:18:51;27.80;;;10.48;;
66139;SDS011;52945;51.908;8.364;2023-02-10T05:21:51;28.33;;;10.40;;
66139;SDS011;52945;51.908;8.364;2023-02-10T05:24:52;28.73;;;10.10;;
66139;SDS011;52945;51.908;8.364;2023-02-10T05:27:54;22.80;;;8.75;;
66139;SDS011;52945;51.908;8.364;2023-02-10T05:30:54;21.60;;;8.80;;
66139;SDS011;52945;51.908;8.364;2023-02-10T05:33:55;30.88;;;10.98;;
66139;SDS011;52945;51.908;8.364;2023-02-10T05:36:55;26.25;;;9.43;;
66139;SDS011;52945;51.908;8.364;2023-02-10T05:39:56;25.88;;;10.13;;
66139;SDS011;52945;51.908;8.364;2023-02-10T05:42:57;33.22;;;11.07;;
66139;SDS011;52945;51.908;8.364;2023-02-10T05:45:57;30.40;;;10.80;;
66139;SDS011;52945;51.908;8.364;2023-02-10T05:48:58;23.20;;;9.65;;
66139;SDS011;52945;51.908;8.364;2023-02-10T05:51:58;25.95;;;10.77;;
66139;SDS011;52945;51.908;8.364;2023-02-10T05:54:59;29.40;;;11.90;;
66139;SDS011;52945;51.908;8.364;2023-02-10T05:58:00;30.25;;;10.32;;
66139;SDS011;52945;51.908;8.364;2023-02-10T06:01:00;30.10;;;10.38;;
66139;SDS011;52945;51.908;8.364;2023-02-10T06:04:05;32.13;;;9.75;;
66139;SDS011;52945;51.908;8.364;2023-02-10T06:07:05;31.38;;;11.63;;
66139;SDS011;52945;51.908;8.364;2023-02-10T06:10:06;32.88;;;10.98;;
66139;SDS011;52945;51.908;8.364;2023-02-10T06:13:07;26.98;;;10.10;;
66139;SDS011;52945;51.908;8.364;2023-02-10T06:16:08;29.88;;;11.25;;
66139;SDS011;52945;51.908;8.364;2023-02-10T06:19:08;28.90;;;10.23;;
66139;SDS011;52945;51.908;8.364;2023-02-10T06:22:09;30.95;;;10.48;;
66139;SDS011;52945;51.908;8.364;2023-02-10T06:25:10;34.80;;;11.20;;
66139;SDS011;52945;51.908;8.364;2023-02-10T06:28:10;34.65;;;11.27;;
66139;SDS011;52945;51.908;8.364;2023-02-10T06:31:11;27.77;;;11.52;;
66139;SDS011;52945;51.908;8.364;2023-02-10T06:34:12;33.05;;;11.70;;
66139;SDS011;52945;51.908;8.364;2023-02-10T06:37:12;29.50;;;10.70;;
66139;SDS011;52945;51.908;8.364;2023-02-10T06:40:13;31.88;;;10.88;;
66139;SDS011;52945;51.908;8.364;2023-02-10T06:43:14;27.92;;;11.48;;
66139;SDS011;52945;51.908;8.364;2023-02-10T06:46:14;28.95;;;11.07;;
66139;SDS011;52945;51.908;8.364;2023-02-10T06:49:15;36.72;;;12.20;;
66139;SDS011;52945;51.908;8.364;2023-02-10T06:52:16;29.83;;;11.45;;
66139;SDS011;52945;51.908;8.364;2023-02-10T06:55:16;32.90;;;12.30;;
66139;SDS011;52945;51.908;8.364;2023-02-10T06:58:17;36.67;;;11.82;;
66139;SDS011;52945;51.908;8.364;2023-02-10T07:01:18;38.65;;;12.63;;
66139;SDS011;52945;51.908;8.364;2023-02-10T07:04:19;31.00;;;11.15;;
66139;SDS011;52945;51.908;8.364;2023-02-10T07:07:19;39.30;;;12.20;;
66139;SDS011;52945;51.908;8.364;2023-02-10T07:10:20;35.70;;;12.30;;
66139;SDS011;52945;51.908;8.364;2023-02-10T07:13:21;34.35;;;12.65;;
66139;SDS011;52945;51.908;8.364;2023-02-10T07:16:22;33.08;;;10.93;;
66139;SDS011;52945;51.908;8.364;2023-02-10T07:19:22;32.65;;;11.80;;
66139;SDS011;52945;51.908;8.364;2023-02-10T07:22:23;32.67;;;13.02;;
66139;SDS011;52945;51.908;8.364;2023-02-10T07:25:23;43.95;;;12.70;;
66139;SDS011;52945;51.908;8.364;2023-02-10T07:28:24;32.95;;;12.15;;
66139;SDS011;52945;51.908;8.364;2023-02-10T07:31:25;39.05;;;11.80;;
66139;SDS011;52945;51.908;8.364;2023-02-10T07:34:26;37.05;;;11.85;;
66139;SDS011;52945;51.908;8.364;2023-02-10T07:37:27;39.17;;;12.50;;
66139;SDS011;52945;51.908;8.364;2023-02-10T07:40:27;31.98;;;12.18;;
66139;SDS011;52945;51.908;8.364;2023-02-10T07:43:30;36.65;;;13.05;;
66139;SDS011;52945;51.908;8.364;2023-02-10T07:46:31;38.47;;;12.45;;
66139;SDS011;52945;51.908;8.364;2023-02-10T07:49:31;40.90;;;12.40;;
66139;SDS011;52945;51.908;8.364;2023-02-10T07:52:32;44.63;;;13.38;;
66139;SDS011;52945;51.908;8.364;2023-02-10T07:55:32;33.30;;;12.45;;
66139;SDS011;52945;51.908;8.364;2023-02-10T07:58:33;43.50;;;12.70;;
66139;SDS011;52945;51.908;8.364;2023-02-10T08:04:41;30.55;;;11.00;;
66139;SDS011;52945;51.908;8.364;2023-02-10T08:07:42;33.60;;;12.30;;
66139;SDS011;52945;51.908;8.364;2023-02-10T08:10:42;40.03;;;13.63;;
66139;SDS011;52945;51.908;8.364;2023-02-10T08:13:43;39.67;;;12.57;;
66139;SDS011;52945;51.908;8.364;2023-02-10T08:16:45;35.47;;;12.38;;
66139;SDS011;52945;51.908;8.364;2023-02-10T08:19:45;35.20;;;13.02;;
66139;SDS011;52945;51.908;8.364;2023-02-10T08:22:46;45.53;;;13.63;;
66139;SDS011;52945;51.908;8.364;2023-02-10T08:25:46;36.53;;;12.25;;
66139;SDS011;52945;51.908;8.364;2023-02-10T08:28:47;35.38;;;11.50;;
66139;SDS011;52945;51.908;8.364;2023-02-10T08:31:48;38.15;;;10.93;;
66139;SDS011;52945;51.908;8.364;2023-02-10T08:34:50;31.80;;;11.07;;
66139;SDS011;52945;51.908;8.364;2023-02-10T08:37:51;31.40;;;11.93;;
66139;SDS011;52945;51.908;8.364;2023-02-10T08:40:55;36.30;;;11.52;;
66139;SDS011;52945;51.908;8.364;2023-02-10T08:43:57;34.47;;;11.95;;
66139;SDS011;52945;51.908;8.364;2023-02-10T08:46:58;38.63;;;12.50;;
66139;SDS011;52945;51.908;8.364;2023-02-10T08:49:59;31.75;;;10.40;;
66139;SDS011;52945;51.908;8.364;2023-02-10T08:52:59;30.17;;;11.45;;
66139;SDS011;52945;51.908;8.364;2023-02-10T08:56:10;33.05;;;12.65;;
66139;SDS011;52945;51.908;8.364;2023-02-10T08:59:13;37.63;;;12.15;;
66139;SDS011;52945;51.908;8.364;2023-02-10T09:02:14;39.03;;;11.70;;
66139;SDS011;52945;51.908;8.364;2023-02-10T09:05:15;35.05;;;11.77;;
66139;SDS011;52945;51.908;8.364;2023-02-10T09:08:16;31.92;;;11.88;;
66139;SDS011;52945;51.908;8.364;2023-02-10T09:11:17;33.78;;;11.60;;
66139;SDS011;52945;51.908;8.364;2023-02-10T09:14:19;42.78;;;12.40;;
66139;SDS011;52945;51.908;8.364;2023-02-10T09:17:19;41.97;;;12.60;;
66139;SDS011;52945;51.908;8.364;2023-02-10T09:20:20;36.20;;;12.05;;
66139;SDS011;52945;51.908;8.364;2023-02-10T09:23:20;35.85;;;13.23;;
66139;SDS011;52945;51.908;8.364;2023-02-10T09:26:21;37.35;;;13.13;;
66139;SDS011;52945;51.908;8.364;2023-02-10T09:29:22;41.75;;;13.45;;
66139;SDS011;52945;51.908;8.364;2023-02-10T09:32:23;37.25;;;13.20;;
66139;SDS011;52945;51.908;8.364;2023-02-10T09:35:23;40.53;;;13.15;;
66139;SDS011;52945;51.908;8.364;2023-02-10T09:38:24;28.38;;;11.50;;
66139;SDS011;52945;51.908;8.364;2023-02-10T09:44:34;35.75;;;12.15;;
66139;SDS011;52945;51.908;8.364;2023-02-10T09:50:52;34.20;;;11.95;;
66139;SDS011;52945;51.908;8.364;2023-02-10T09:53:59;32.35;;;11.40;;
66139;SDS011;52945;51.908;8.364;2023-02-10T09:57:03;28.55;;;11.82;;
66139;SDS011;52945;51.908;8.364;2023-02-10T10:00:08;32.78;;;12.05;;
66139;SDS011;52945;51.908;8.364;2023-02-10T10:03:37;33.92;;;11.60;;
66139;SDS011;52945;51.908;8.364;2023-02-10T10:06:45;37.60;;;12.02;;
66139;SDS011;52945;51.908;8.364;2023-02-10T10:09:51;31.63;;;11.95;;
66139;SDS011;52945;51.908;8.364;2023-02-10T10:12:58;35.70;;;12.40;;
66139;SDS011;52945;51.908;8.364;2023-02-10T10:16:06;38.20;;;12.10;;
66139;SDS011;52945;51.908;8.364;2023-02-10T10:26:45;29.25;;;11.38;;
66139;SDS011;52945;51.908;8.364;2023-02-10T10:29:57;33.42;;;11.90;;
66139;SDS011;52945;51.908;8.364;2023-02-10T10:36:44;33.92;;;10.18;;
66139;SDS011;52945;51.908;8.364;2023-02-10T10:39:52;28.25;;;10.52;;
66139;SDS011;52945;51.908;8.364;2023-02-10T10:42:59;32.53;;;9.82;;
66139;SDS011;52945;51.908;8.364;2023-02-10T10:49:11;34.45;;;10.25;;
66139;SDS011;52945;51.908;8.364;2023-02-10T10:52:29;29.55;;;10.52;;
66139;SDS011;52945;51.908;8.364;2023-02-10T10:55:38;25.58;;;9.73;;
66139;SDS011;52945;51.908;8.364;2023-02-10T10:58:42;36.50;;;11.23;;
66139;SDS011;52945;51.908;8.364;2023-02-10T11:01:46;31.55;;;11.57;;
66139;SDS011;52945;51.908;8.364;2023-02-10T11:05:01;32.13;;;10.38;;
66139;SDS011;52945;51.908;8.364;2023-02-10T11:08:04;25.42;;;8.70;;
66139;SDS011;52945;51.908;8.364;2023-02-10T11:11:06;33.65;;;10.38;;
66139;SDS011;52945;51.908;8.364;2023-02-10T11:14:14;31.27;;;9.90;;
66139;SDS011;52945;51.908;8.364;2023-02-10T11:20:40;28.42;;;10.48;;
66139;SDS011;52945;51.908;8.364;2023-02-10T11:23:53;31.50;;;8.73;;
66139;SDS011;52945;51.908;8.364;2023-02-10T11:27:01;26.92;;;9.23;;
66139;SDS011;52945;51.908;8.364;2023-02-10T11:33:03;29.80;;;9.23;;
66139;SDS011;52945;51.908;8.364;2023-02-10T11:36:07;24.13;;;9.05;;
66139;SDS011;52945;51.908;8.364;2023-02-10T11:39:27;31.52;;;10.18;;
66139;SDS011;52945;51.908;8.364;2023-02-10T11:42:33;29.40;;;9.35;;
66139;SDS011;52945;51.908;8.364;2023-02-10T11:45:35;32.85;;;10.98;;
66139;SDS011;52945;51.908;8.364;2023-02-10T11:48:36;32.60;;;9.80;;
66139;SDS011;52945;51.908;8.364;2023-02-10T11:51:37;31.05;;;10.32;;
66139;SDS011;52945;51.908;8.364;2023-02-10T11:54:38;31.98;;;10.55;;
66139;SDS011;52945;51.908;8.364;2023-02-10T11:57:44;32.08;;;10.23;;
66139;SDS011;52945;51.908;8.364;2023-02-10T12:01:14;32.72;;;10.27;;
66139;SDS011;52945;51.908;8.364;2023-02-10T12:04:37;31.52;;;10.98;;
66139;SDS011;52945;51.908;8.364;2023-02-10T12:37:44;26.02;;;9.63;;
66139;SDS011;52945;51.908;8.364;2023-02-10T12:44:41;21.90;;;8.13;;
66139;SDS011;52945;51.908;8.364;2023-02-10T12:54:17;25.92;;;9.05;;
66139;SDS011;52945;51.908;8.364;2023-02-10T12:57:37;21.70;;;8.57;;
66139;SDS011;52945;51.908;8.364;2023-02-10T13:00:46;23.75;;;8.73;;
66139;SDS011;52945;51.908;8.364;2023-02-10T13:03:53;23.63;;;7.90;;
66139;SDS011;52945;51.908;8.364;2023-02-10T13:07:04;20.17;;;8.25;;
66139;SDS011;52945;51.908;8.364;2023-02-10T13:13:34;21.52;;;8.23;;
66139;SDS011;52945;51.908;8.364;2023-02-10T13:16:38;20.20;;;8.07;;
66139;SDS011;52945;51.908;8.364;2023-02-10T13:23:15;25.65;;;8.35;;
66139;SDS011;52945;51.908;8.364;2023-02-10T13:26:44;23.02;;;8.68;;
66139;SDS011;52945;51.908;8.364;2023-02-10T13:33:14;23.15;;;8.07;;
66139;SDS011;52945;51.908;8.364;2023-02-10T13:36:26;22.27;;;8.02;;
66139;SDS011;52945;51.908;8.364;2023-02-10T13:39:31;20.05;;;7.70;;
66139;SDS011;52945;51.908;8.364;2023-02-10T13:42:36;23.25;;;8.15;;
66139;SDS011;52945;51.908;8.364;2023-02-10T13:45:38;21.42;;;7.88;;
66139;SDS011;52945;51.908;8.364;2023-02-10T13:48:55;18.42;;;6.93;;
66139;SDS011;52945;51.908;8.364;2023-02-10T13:51:59;20.75;;;7.60;;
66139;SDS011;52945;51.908;8.364;2023-02-10T14:01:34;16.65;;;6.75;;
66139;SDS011;52945;51.908;8.364;2023-02-10T14:04:41;18.05;;;6.97;;
66139;SDS011;52945;51.908;8.364;2023-02-10T14:07:45;18.88;;;7.07;;
66139;SDS011;52945;51.908;8.364;2023-02-10T14:10:55;23.73;;;7.38;;
66139;SDS011;52945;51.908;8.364;2023-02-10T14:14:02;20.23;;;6.97;;
66139;SDS011;52945;51.908;8.364;2023-02-10T14:17:25;19.73;;;7.70;;
66139;SDS011;52945;51.908;8.364;2023-02-10T14:20:36;21.58;;;7.15;;
66139;SDS011;52945;51.908;8.364;2023-02-10T14:23:42;18.90;;;6.95;;
66139;SDS011;52945;51.908;8.364;2023-02-10T14:27:05;22.80;;;8.05;;
66139;SDS011;52945;51.908;8.364;2023-02-10T14:30:15;23.38;;;8.40;;
66139;SDS011;52945;51.908;8.364;2023-02-10T14:33:39;18.27;;;6.97;;
66139;SDS011;52945;51.908;8.364;2023-02-10T14:36:40;21.35;;;8.07;;
66139;SDS011;52945;51.908;8.364;2023-02-10T14:39:58;19.08;;;6.95;;
66139;SDS011;52945;51.908;8.364;2023-02-10T14:43:01;20.50;;;7.55;;
66139;SDS011;52945;51.908;8.364;2023-02-10T14:46:02;23.25;;;8.60;;
66139;SDS011;52945;51.908;8.364;2023-02-10T14:49:08;20.40;;;6.75;;
66139;SDS011;52945;51.908;8.364;2023-02-10T14:52:24;18.35;;;7.68;;
66139;SDS011;52945;51.908;8.364;2023-02-10T14:55:31;22.50;;;7.28;;
66139;SDS011;52945;51.908;8.364;2023-02-10T14:58:34;20.35;;;7.97;;
66139;SDS011;52945;51.908;8.364;2023-02-10T15:01:35;23.98;;;8.02;;
66139;SDS011;52945;51.908;8.364;2023-02-10T15:07:37;21.63;;;8.13;;
66139;SDS011;52945;51.908;8.364;2023-02-10T15:10:43;18.83;;;7.18;;
66139;SDS011;52945;51.908;8.364;2023-02-10T15:13:49;20.15;;;8.05;;
66139;SDS011;52945;51.908;8.364;2023-02-10T15:16:50;23.85;;;8.43;;
66139;SDS011;52945;51.908;8.364;2023-02-10T15:29:11;27.17;;;9.07;;
66139;SDS011;52945;51.908;8.364;2023-02-10T15:32:17;24.55;;;8.40;;
66139;SDS011;52945;51.908;8.364;2023-02-10T15:35:20;23.55;;;8.60;;
66139;SDS011;52945;51.908;8.364;2023-02-10T15:38:21;25.67;;;8.50;;
66139;SDS011;52945;51.908;8.364;2023-02-10T15:44:27;20.45;;;8.50;;
66139;SDS011;52945;51.908;8.364;2023-02-10T15:47:53;23.10;;;8.43;;
66139;SDS011;52945;51.908;8.364;2023-02-10T15:54:00;19.92;;;8.10;;
66139;SDS011;52945;51.908;8.364;2023-02-10T15:57:01;23.95;;;8.27;;
66139;SDS011;52945;51.908;8.364;2023-02-10T16:00:10;19.67;;;7.82;;
66139;SDS011;52945;51.908;8.364;2023-02-10T16:03:16;23.98;;;7.97;;
66139;SDS011;52945;51.908;8.364;2023-02-10T16:06:17;21.05;;;8.18;;
66139;SDS011;52945;51.908;8.364;2023-02-10T16:09:18;20.90;;;8.88;;
66139;SDS011;52945;51.908;8.364;2023-02-10T16:12:19;20.77;;;9.48;;
66139;SDS011;52945;51.908;8.364;2023-02-10T16:15:22;27.67;;;8.93;;
66139;SDS011;52945;51.908;8.364;2023-02-10T16:18:24;22.73;;;8.57;;
66139;SDS011;52945;51.908;8.364;2023-02-10T16:21:26;20.88;;;8.10;;
66139;SDS011;52945;51.908;8.364;2023-02-10T16:24:27;29.67;;;9.48;;
66139;SDS011;52945;51.908;8.364;2023-02-10T16:27:29;21.88;;;8.43;;
66139;SDS011;52945;51.908;8.364;2023-02-10T16:30:29;26.33;;;8.48;;
66139;SDS011;52945;51.908;8.364;2023-02-10T16:33:30;29.20;;;9.10;;
66139;SDS011;52945;51.908;8.364;2023-02-10T16:36:31;22.33;;;8.60;;
66139;SDS011;52945;51.908;8.364;2023-02-10T16:39:32;20.65;;;8.20;;
66139;SDS011;52945;51.908;8.364;2023-02-10T16:42:33;22.98;;;8.80;;
66139;SDS011;52945;51.908;8.364;2023-02-10T16:45:34;30.02;;;7.50;;
66139;SDS011;52945;51.908;8.364;2023-02-10T16:48:35;21.15;;;7.80;;
66139;SDS011;52945;51.908;8.364;2023-02-10T16:51:35;25.08;;;8.50;;
66139;SDS011;52945;51.908;8.364;2023-02-10T16:54:36;23.20;;;7.65;;
66139;SDS011;52945;51.908;8.364;2023-02-10T16:57:36;19.27;;;8.10;;
66139;SDS011;52945;51.908;8.364;2023-02-10T17:00:37;20.80;;;8.02;;
66139;SDS011;52945;51.908;8.364;2023-02-10T17:03:37;24.75;;;8.98;;
66139;SDS011;52945;51.908;8.364;2023-02-10T17:06:41;20.35;;;8.25;;
66139;SDS011;52945;51.908;8.364;2023-02-10T17:09:44;26.65;;;9.63;;
66139;SDS011;52945;51.908;8.364;2023-02-10T17:12:45;25.75;;;8.55;;
66139;SDS011;52945;51.908;8.364;2023-02-10T17:15:46;25.75;;;8.30;;
66139;SDS011;52945;51.908;8.364;2023-02-10T17:18:47;18.00;;;8.00;;
66139;SDS011;52945;51.908;8.364;2023-02-10T17:21:48;23.80;;;8.57;;
66139;SDS011;52945;51.908;8.364;2023-02-10T17:24:48;22.13;;;8.55;;
66139;SDS011;52945;51.908;8.364;2023-02-10T17:27:49;18.38;;;7.90;;
66139;SDS011;52945;51.908;8.364;2023-02-10T17:30:51;21.77;;;7.45;;
66139;SDS011;52945;51.908;8.364;2023-02-10T17:33:52;21.55;;;9.00;;
66139;SDS011;52945;51.908;8.364;2023-02-10T17:36:52;20.42;;;8.38;;
66139;SDS011;52945;51.908;8.364;2023-02-10T17:39:53;23.23;;;9.02;;
66139;SDS011;52945;51.908;8.364;2023-02-10T17:43:20;27.63;;;8.82;;
66139;SDS011;52945;51.908;8.364;2023-02-10T17:46:20;19.92;;;7.93;;
66139;SDS011;52945;51.908;8.364;2023-02-10T17:49:22;24.85;;;8.57;;
66139;SDS011;52945;51.908;8.364;2023-02-10T17:52:25;24.15;;;8.60;;
66139;SDS011;52945;51.908;8.364;2023-02-10T17:55:25;29.33;;;9.27;;
66139;SDS011;52945;51.908;8.364;2023-02-10T17:58:29;24.50;;;8.05;;
66139;SDS011;52945;51.908;8.364;2023-02-10T18:01:30;23.60;;;8.48;;
66139;SDS011;52945;51.908;8.364;2023-02-10T18:04:31;25.50;;;9.35;;
66139;SDS011;52945;51.908;8.364;2023-02-10T18:07:31;23.15;;;8.38;;
66139;SDS011;52945;51.908;8.364;2023-02-10T18:10:32;20.17;;;7.78;;
66139;SDS011;52945;51.908;8.364;2023-02-10T18:13:32;22.95;;;8.55;;
66139;SDS011;52945;51.908;8.364;2023-02-10T18:16:33;24.77;;;8.75;;
66139;SDS011;52945;51.908;8.364;2023-02-10T18:19:34;24.88;;;9.90;;
66139;SDS011;52945;51.908;8.364;2023-02-10T18:22:36;26.10;;;9.65;;
66139;SDS011;52945;51.908;8.364;2023-02-10T18:25:36;23.60;;;9.23;;
66139;SDS011;52945;51.908;8.364;2023-02-10T18:28:37;28.67;;;9.70;;
66139;SDS011;52945;51.908;8.364;2023-02-10T18:31:39;27.30;;;9.55;;
66139;SDS011;52945;51.908;8.364;2023-02-10T18:34:39;23.95;;;8.80;;
66139;SDS011;52945;51.908;8.364;2023-02-10T18:37:40;24.35;;;9.10;;
66139;SDS011;52945;51.908;8.364;2023-02-10T18:40:41;23.73;;;10.23;;
66139;SDS011;52945;51.908;8.364;2023-02-10T18:43:42;27.77;;;8.77;;
66139;SDS011;52945;51.908;8.364;2023-02-10T18:46:43;27.05;;;10.32;;
66139;SDS011;52945;51.908;8.364;2023-02-10T18:49:43;32.53;;;9.30;;
66139;SDS011;52945;51.908;8.364;2023-02-10T18:52:44;33.03;;;10.15;;
66139;SDS011;52945;51.908;8.364;2023-02-10T18:55:45;20.38;;;9.07;;
66139;SDS011;52945;51.908;8.364;2023-02-10T18:58:47;32.75;;;11.02;;
66139;SDS011;52945;51.908;8.364;2023-02-10T19:01:47;25.58;;;9.43;;
66139;SDS011;52945;51.908;8.364;2023-02-10T19:04:48;26.25;;;9.50;;
66139;SDS011;52945;51.908;8.364;2023-02-10T19:07:48;30.90;;;9.98;;
66139;SDS011;52945;51.908;8.364;2023-02-10T19:10:49;28.55;;;10.60;;
66139;SDS011;52945;51.908;8.364;2023-02-10T19:13:50;24.92;;;9.45;;
66139;SDS011;52945;51.908;8.364;2023-02-10T19:16:50;33.67;;;9.88;;
66139;SDS011;52945;51.908;8.364;2023-02-10T19:19:51;29.00;;;10.05;;
66139;SDS011;52945;51.908;8.364;2023-02-10T19:22:51;25.88;;;9.75;;
66139;SDS011;52945;51.908;8.364;2023-02-10T19:25:52;30.95;;;9.45;;
66139;SDS011;52945;51.908;8.364;2023-02-10T19:28:53;25.00;;;10.25;;
66139;SDS011;52945;51.908;8.364;2023-02-10T19:31:56;25.10;;;9.98;;
66139;SDS011;52945;51.908;8.364;2023-02-10T19:34:56;23.67;;;9.40;;
66139;SDS011;52945;51.908;8.364;2023-02-10T19:37:57;24.10;;;8.23;;
66139;SDS011;52945;51.908;8.364;2023-02-10T19:41:05;22.33;;;10.13;;
66139;SDS011;52945;51.908;8.364;2023-02-10T19:44:13;29.33;;;10.85;;
66139;SDS011;52945;51.908;8.364;2023-02-10T19:47:15;29.65;;;10.82;;
66139;SDS011;52945;51.908;8.364;2023-02-10T19:50:16;28.02;;;10.60;;
66139;SDS011;52945;51.908;8.364;2023-02-10T19:53:17;21.73;;;8.60;;
66139;SDS011;52945;51.908;8.364;2023-02-10T19:56:17;26.50;;;8.98;;
66139;SDS011;52945;51.908;8.364;2023-02-10T19:59:18;29.13;;;9.23;;
66139;SDS011;52945;51.908;8.364;2023-02-10T20:02:19;23.45;;;8.85;;
66139;SDS011;52945;51.908;8.364;2023-02-10T20:05:20;20.17;;;7.57;;
66139;SDS011;52945;51.908;8.364;2023-02-10T20:08:21;22.90;;;8.77;;
66139;SDS011;52945;51.908;8.364;2023-02-10T20:11:21;24.83;;;8.85;;